Terminal Aerodrome Forecast
Issued by NWS

Home | Current Version | Previous Version | Text Only | Print | Product List | Glossary On
Versions: 1 2 3 4 5 6 7 8 9 10 11 12 13 14 15 16 17 18 19 20 21 22 23
000
FTUS43 KDLH 191100
TAFHYR
TAF
KHYR 191125Z 1912/2012 20004KT P6SM BKN100 WS020/23040KT
     FM191500 22010G20KT P6SM SCT100
     FM200000 29004KT P6SM SKC=

USA.gov is the U.S. government's official web portal to all federal, state and local government web resources and services.